Aeroporto :
LOGIN :

Iscrizione | Disclaimer

   EN    FR    IT 

 










Sommario :    VFR   VFR Marginale   IFR   IFR Intensivo   IFR Molto Intensivo
Visibilità : 
Base nubi : 
>= 8 km
>= 3000ft
5 / 8 km
1000 / 3000 ft
1500m / 5 km
500 / 1000 ft
800 / 1500m
200 / 500 ft
< 800m
< 200 ft
Simboli :   Temporali  Nebbia  Neve Forte  Precipitazioni Forti  Vento > 20 kt
SIGMETs :   Varie  Temporali  Ghiacco  Turbolenza  Onda orograficha  Ceneri Vulcaniche






- Altitudine del aeroporto : 257 ft
- Codice IATA : MAN


EGCC - Manchester

ULTIMO METAR :
  • 171650Z AUTO 01008KT 9999 FEW021 BKN041 08/05 Q1015 NOSIG

METARs OBSOLETI :
  • 171620Z AUTO 36007KT 9999 FEW021 BKN036 08/06 Q1015 NOSIG
  • 171550Z AUTO 02007KT 9999 FEW026 BKN034 08/06 Q1014 NOSIG
  • 171520Z AUTO 02008KT 9999 SCT023/// BKN032/// //////TCU 08/06 Q1014 NOSIG
  • 171450Z AUTO 02007KT 9999 -RA SCT025 BKN036 BKN049 08/06 Q1014

TAF TAF EGCC
Valido dal 17 a 12 ore il 18 a 18 ore UTC


171103Z 1712/1818 35005KT 9999 FEW010 SCT030
TEMPO 1712/1721 6000 -RA BKN010
PROB30
TEMPO 1712/1718 4000 RA BKN008
TEMPO 1721/1810 6000
PROB30 1800/1810 3000 BR MIFG
ATIS : +44 161 499 2324



MetMap, La meteo Aeronautica in un colpo d'occhio ! - Copyright ORBIFLY Dicembre 2007 - Disclaimer

ORBIFLY MET'MAP TEAM :

Programmazione e sviluppo : Alexandra Zaïnal
Concezione e sviluppo : Baudouin d'Aumeries
Co-Programmazione e sviluppo : Marc-Olivier Méhu
Supporto tecnico e logistico : Manuel Goepfert
Aiuto per la traduzione : Arnaldo La Scala

Contatto : metmap@orbifly.com




FONTI E CREDITI :

   NOAA